createdAt,value
2018-12-31T00:00:33.670Z,15.4
2018-12-31T00:01:33.747Z,12.4
2018-12-31T00:02:34.880Z,15.4
2018-12-31T00:03:33.614Z,18.3
2018-12-31T00:04:33.540Z,15.4
2018-12-31T00:05:33.574Z,21.3
2018-12-31T00:06:33.755Z,21.3
2018-12-31T00:07:33.584Z,15.4
2018-12-31T00:08:33.787Z,9.5
2018-12-31T00:09:33.617Z,18.3
2018-12-31T00:10:33.242Z,15.4
2018-12-31T00:12:38.317Z,18.3
2018-12-31T00:13:38.149Z,15.4
2018-12-31T00:14:38.077Z,12.4
2018-12-31T00:15:38.106Z,6.6
2018-12-31T00:16:38.139Z,12.4
2018-12-31T00:17:38.248Z,9.5
2018-12-31T00:18:39.581Z,12.4
2018-12-31T00:19:37.700Z,18.3
2018-12-31T00:20:38.148Z,9.5
2018-12-31T00:21:38.105Z,27.3
2018-12-31T00:22:38.091Z,21.3
2018-12-31T00:23:41.022Z,18.3
2018-12-31T00:24:38.145Z,15.4
2018-12-31T00:25:38.511Z,15.4
2018-12-31T00:26:37.094Z,21.3
2018-12-31T00:27:37.227Z,15.4
2018-12-31T00:28:37.176Z,12.4
2018-12-31T00:29:37.166Z,9.5
2018-12-31T00:30:37.243Z,18.3
2018-12-31T00:31:37.202Z,12.4
2018-12-31T00:32:37.156Z,27.3
2018-12-31T00:33:37.230Z,12.4
2018-12-31T00:34:37.227Z,3.9
2018-12-31T00:35:37.282Z,6.6
2018-12-31T00:36:37.217Z,6.6
2018-12-31T00:37:37.251Z,15.4
2018-12-31T00:38:37.212Z,6.6
2018-12-31T00:39:37.200Z,15.4
2018-12-31T00:40:37.300Z,3.9
2018-12-31T00:41:37.194Z,12.4
2018-12-31T00:42:47.113Z,9.5
2018-12-31T00:43:37.195Z,12.4
2018-12-31T00:44:37.210Z,0
2018-12-31T00:45:37.196Z,3.9
2018-12-31T00:46:37.294Z,0
2018-12-31T00:47:37.222Z,1.8
2018-12-31T00:48:37.225Z,0
2018-12-31T00:49:37.197Z,0
2018-12-31T00:50:37.183Z,3.9
2018-12-31T00:51:37.303Z,12.4
2018-12-31T00:52:37.243Z,1.8
2018-12-31T00:53:37.159Z,9.5
2018-12-31T00:54:37.207Z,6.6
2018-12-31T00:55:37.378Z,1.8
2018-12-31T00:56:37.256Z,1.8
2018-12-31T00:57:37.169Z,9.5
2018-12-31T00:58:37.192Z,9.5
2018-12-31T00:59:37.190Z,0
2018-12-31T01:00:37.226Z,6.6
2018-12-31T01:01:37.320Z,6.6
2018-12-31T01:02:37.273Z,0
2018-12-31T01:03:37.219Z,3.9
2018-12-31T01:04:37.181Z,9.5
2018-12-31T01:05:37.188Z,12.4
2018-12-31T01:06:37.357Z,3.9
2018-12-31T01:07:37.251Z,0
2018-12-31T01:08:37.216Z,12.4
2018-12-31T01:09:37.178Z,18.3
2018-12-31T01:10:37.172Z,9.5
2018-12-31T01:11:37.138Z,1.8
2018-12-31T01:12:37.156Z,18.3
2018-12-31T01:13:37.249Z,15.4
2018-12-31T01:14:37.155Z,18.3
2018-12-31T01:15:37.214Z,9.5
2018-12-31T01:16:37.156Z,9.5
2018-12-31T01:17:38.882Z,9.5
2018-12-31T01:18:38.165Z,9.5
2018-12-31T01:19:38.270Z,3.9
2018-12-31T01:20:37.190Z,3.9
2018-12-31T01:21:37.128Z,6.6
2018-12-31T01:22:37.275Z,3.9
2018-12-31T01:23:37.171Z,6.6
2018-12-31T01:24:37.205Z,18.3
2018-12-31T01:25:37.207Z,15.4
2018-12-31T01:26:37.130Z,9.5
2018-12-31T01:27:37.178Z,9.5
2018-12-31T01:28:37.228Z,6.6
2018-12-31T01:29:37.548Z,0
2018-12-31T01:30:37.155Z,6.6
2018-12-31T01:31:37.145Z,12.4
2018-12-31T01:32:37.137Z,18.3
2018-12-31T01:33:37.135Z,6.6
2018-12-31T01:34:37.173Z,6.6
2018-12-31T01:35:37.173Z,0
2018-12-31T01:36:39.353Z,6.6
2018-12-31T01:37:37.124Z,3.9
2018-12-31T01:38:38.507Z,9.5
2018-12-31T01:39:37.510Z,12.4
2018-12-31T01:40:37.316Z,3.9
2018-12-31T01:41:37.209Z,3.9
2018-12-31T01:42:37.270Z,6.6
2018-12-31T01:43:37.412Z,1.8
2018-12-31T01:44:37.183Z,3.9
2018-12-31T01:45:37.179Z,0
2018-12-31T01:46:37.261Z,3.9
2018-12-31T01:47:37.146Z,3.9
2018-12-31T01:48:37.131Z,15.4
2018-12-31T01:49:37.388Z,15.4
2018-12-31T01:50:37.216Z,3.9
2018-12-31T01:51:37.217Z,0
2018-12-31T01:52:37.146Z,0
2018-12-31T01:53:37.123Z,0
2018-12-31T01:54:37.096Z,3.9
2018-12-31T01:55:37.222Z,9.5
2018-12-31T01:56:37.160Z,3.9
2018-12-31T01:57:37.139Z,0
2018-12-31T01:58:37.205Z,3.9
2018-12-31T01:59:37.197Z,3.9
2018-12-31T02:00:38.042Z,3.9
2018-12-31T02:01:37.199Z,3.9
2018-12-31T02:02:37.165Z,1.8
2018-12-31T02:03:37.229Z,3.9
2018-12-31T02:04:37.095Z,3.9
2018-12-31T02:05:37.156Z,15.4
2018-12-31T02:06:37.142Z,6.6
2018-12-31T02:07:37.205Z,9.5
2018-12-31T02:08:37.128Z,3.9
2018-12-31T02:09:38.716Z,1.8
2018-12-31T02:10:37.089Z,3.9
2018-12-31T02:11:39.215Z,3.9
2018-12-31T02:12:37.247Z,1.8
2018-12-31T02:13:37.155Z,1.8
2018-12-31T02:14:37.256Z,3.9
2018-12-31T02:15:37.148Z,1.8
2018-12-31T02:16:37.110Z,3.9
2018-12-31T02:17:37.176Z,9.5
2018-12-31T02:18:37.194Z,12.4
2018-12-31T02:19:37.175Z,3.9
2018-12-31T02:20:37.149Z,1.8
2018-12-31T02:21:37.093Z,9.5
2018-12-31T02:22:37.203Z,3.9
2018-12-31T02:23:37.239Z,6.6
2018-12-31T02:24:37.121Z,6.6
2018-12-31T02:25:37.119Z,0
2018-12-31T02:26:37.143Z,0
2018-12-31T02:27:37.174Z,3.9
2018-12-31T02:28:37.223Z,9.5
2018-12-31T02:29:37.134Z,6.6
2018-12-31T02:30:37.134Z,9.5
2018-12-31T02:31:37.241Z,15.4
2018-12-31T02:32:37.142Z,9.5
2018-12-31T02:33:37.120Z,9.5
2018-12-31T02:34:37.125Z,15.4
2018-12-31T02:35:37.190Z,6.6
2018-12-31T02:36:37.141Z,0
2018-12-31T02:37:37.105Z,3.9
2018-12-31T02:38:37.184Z,3.9
2018-12-31T02:39:37.258Z,1.8
2018-12-31T02:40:37.118Z,0
2018-12-31T02:41:37.174Z,3.9
2018-12-31T02:42:37.193Z,6.6
2018-12-31T02:43:54.051Z,9.5
2018-12-31T02:44:40.718Z,9.5
2018-12-31T02:45:37.369Z,3.9
2018-12-31T02:46:37.119Z,3.9
2018-12-31T02:47:40.618Z,15.4
2018-12-31T02:48:37.131Z,1.8
2018-12-31T02:49:37.168Z,3.9
2018-12-31T02:50:37.224Z,3.9
2018-12-31T02:51:37.126Z,9.5
2018-12-31T02:52:37.193Z,3.9
2018-12-31T02:53:37.122Z,9.5
2018-12-31T02:54:37.185Z,0
2018-12-31T02:55:37.159Z,12.4
2018-12-31T02:56:52.174Z,12.4
2018-12-31T02:57:37.104Z,9.5
2018-12-31T02:58:37.135Z,15.4
2018-12-31T02:59:37.859Z,3.9
2018-12-31T03:00:37.139Z,12.4
2018-12-31T03:01:37.133Z,15.4
2018-12-31T03:02:37.106Z,9.5
2018-12-31T03:03:37.150Z,12.4
2018-12-31T03:04:37.167Z,18.3
2018-12-31T03:05:39.102Z,12.4
2018-12-31T03:06:37.187Z,12.4
2018-12-31T03:07:37.173Z,21.3
2018-12-31T03:08:37.144Z,15.4
2018-12-31T03:09:37.117Z,18.3
2018-12-31T03:10:37.104Z,12.4
2018-12-31T03:11:37.192Z,15.4
2018-12-31T03:12:37.178Z,15.4
2018-12-31T03:13:37.128Z,15.4
2018-12-31T03:14:37.184Z,9.5
2018-12-31T03:15:37.132Z,1.8
2018-12-31T03:16:37.132Z,9.5
2018-12-31T03:17:37.204Z,9.5
2018-12-31T03:18:37.152Z,1.8
2018-12-31T03:19:37.145Z,0
2018-12-31T03:20:37.229Z,0
2018-12-31T03:21:37.096Z,1.8
2018-12-31T03:22:37.171Z,9.5
2018-12-31T03:23:37.151Z,1.8
2018-12-31T03:24:37.109Z,1.8
2018-12-31T03:25:37.229Z,6.6
2018-12-31T03:26:37.127Z,3.9
2018-12-31T03:27:37.128Z,6.6
2018-12-31T03:28:37.125Z,0
2018-12-31T03:29:37.151Z,1.8
2018-12-31T03:30:37.188Z,0
2018-12-31T03:31:37.086Z,3.9
2018-12-31T03:32:37.142Z,0
2018-12-31T03:33:37.155Z,6.6
2018-12-31T03:34:37.206Z,3.9
2018-12-31T03:35:37.114Z,15.4
2018-12-31T03:36:37.115Z,12.4
2018-12-31T03:37:37.185Z,9.5
2018-12-31T03:38:37.127Z,9.5
2018-12-31T03:39:37.186Z,3.9
2018-12-31T03:40:37.138Z,3.9
2018-12-31T03:41:37.201Z,9.5
2018-12-31T03:42:37.068Z,6.6
2018-12-31T03:43:37.163Z,0
2018-12-31T03:44:47.077Z,3.9
2018-12-31T03:45:37.110Z,9.5
2018-12-31T03:46:37.238Z,1.8
2018-12-31T03:47:37.120Z,6.6
2018-12-31T03:48:37.038Z,3.9
2018-12-31T03:49:37.117Z,6.6
2018-12-31T03:50:37.175Z,3.9
2018-12-31T03:51:37.180Z,9.5
2018-12-31T03:52:37.230Z,1.8
2018-12-31T03:53:37.052Z,0
2018-12-31T03:54:37.146Z,1.8
2018-12-31T03:55:37.199Z,3.9
2018-12-31T03:56:37.120Z,6.6
2018-12-31T03:57:37.196Z,3.9
2018-12-31T03:58:37.104Z,1.8
2018-12-31T03:59:37.090Z,6.6
2018-12-31T04:00:37.101Z,1.8
2018-12-31T04:01:37.193Z,1.8
2018-12-31T04:02:37.175Z,6.6
2018-12-31T04:03:37.181Z,3.9
2018-12-31T04:04:37.100Z,0
2018-12-31T04:05:37.112Z,6.6
2018-12-31T04:06:37.139Z,6.6
2018-12-31T04:07:37.130Z,1.8
2018-12-31T04:08:37.175Z,9.5
2018-12-31T04:09:37.553Z,3.9
2018-12-31T04:10:37.085Z,6.6
2018-12-31T04:11:37.134Z,6.6
2018-12-31T04:12:37.118Z,12.4
2018-12-31T04:13:37.200Z,3.9
2018-12-31T04:14:37.098Z,3.9
2018-12-31T04:15:37.123Z,3.9
2018-12-31T04:16:37.221Z,9.5
2018-12-31T04:17:39.460Z,3.9
2018-12-31T04:18:37.106Z,0
2018-12-31T04:19:37.179Z,12.4
2018-12-31T04:20:37.174Z,3.9
2018-12-31T04:21:37.069Z,15.4
2018-12-31T04:22:37.125Z,3.9
2018-12-31T04:23:37.089Z,12.4
2018-12-31T04:24:37.107Z,6.6
2018-12-31T04:25:37.139Z,3.9
2018-12-31T04:26:37.071Z,0
2018-12-31T04:27:37.059Z,1.8
2018-12-31T04:28:37.168Z,15.4
2018-12-31T04:29:37.163Z,3.9
2018-12-31T04:30:37.174Z,9.5
2018-12-31T04:31:37.072Z,6.6
2018-12-31T04:32:37.147Z,9.5
2018-12-31T04:33:37.092Z,12.4
2018-12-31T04:34:37.150Z,0
2018-12-31T04:35:37.152Z,3.9
2018-12-31T04:36:37.090Z,12.4
2018-12-31T04:37:37.066Z,0
2018-12-31T04:38:37.182Z,6.6
2018-12-31T04:39:37.117Z,6.6
2018-12-31T04:40:37.162Z,9.5
2018-12-31T04:41:37.081Z,6.6
2018-12-31T04:42:37.073Z,1.8
2018-12-31T04:43:37.100Z,6.6
2018-12-31T04:44:37.147Z,0
2018-12-31T04:45:37.126Z,6.6
2018-12-31T04:46:37.084Z,6.6
2018-12-31T04:47:37.189Z,6.6
2018-12-31T04:48:37.060Z,1.8
2018-12-31T04:49:37.073Z,6.6
2018-12-31T04:50:37.092Z,0
2018-12-31T04:51:37.138Z,0
2018-12-31T04:52:37.171Z,9.5
2018-12-31T04:53:46.940Z,3.9
2018-12-31T04:54:37.107Z,3.9
2018-12-31T04:55:45.569Z,3.9
2018-12-31T04:56:37.081Z,3.9
2018-12-31T04:57:37.234Z,6.6
2018-12-31T04:58:37.123Z,6.6
2018-12-31T04:59:37.048Z,6.6
2018-12-31T05:00:37.138Z,6.6
2018-12-31T05:01:37.100Z,3.9
2018-12-31T05:02:37.091Z,9.5
2018-12-31T05:03:37.164Z,6.6
2018-12-31T05:04:37.045Z,1.8
2018-12-31T05:05:37.125Z,3.9
2018-12-31T05:06:37.181Z,3.9
2018-12-31T05:07:37.181Z,6.6
2018-12-31T05:08:37.124Z,3.9
2018-12-31T05:09:37.099Z,3.9
2018-12-31T05:10:37.021Z,6.6
2018-12-31T05:11:37.073Z,1.8
2018-12-31T05:12:37.090Z,9.5
2018-12-31T05:13:37.154Z,6.6
2018-12-31T05:14:37.162Z,3.9
2018-12-31T05:15:37.013Z,12.4
2018-12-31T05:16:37.102Z,3.9
2018-12-31T05:17:37.105Z,6.6
2018-12-31T05:18:37.080Z,6.6
2018-12-31T05:19:37.134Z,6.6
2018-12-31T05:20:37.106Z,6.6
2018-12-31T05:21:37.040Z,1.8
2018-12-31T05:22:37.067Z,3.9
2018-12-31T05:23:37.086Z,6.6
2018-12-31T05:24:37.048Z,3.9
2018-12-31T05:25:37.168Z,9.5
2018-12-31T05:26:37.047Z,12.4
2018-12-31T05:27:37.071Z,3.9
2018-12-31T05:28:37.070Z,12.4
2018-12-31T05:29:37.087Z,9.5
2018-12-31T05:30:37.123Z,3.9
2018-12-31T05:31:37.063Z,6.6
2018-12-31T05:32:37.061Z,3.9
2018-12-31T05:33:37.065Z,9.5
2018-12-31T05:34:37.090Z,3.9
2018-12-31T05:35:37.163Z,3.9
2018-12-31T05:36:37.071Z,3.9
2018-12-31T05:37:37.129Z,12.4
2018-12-31T05:38:37.081Z,12.4
2018-12-31T05:39:37.054Z,1.8
2018-12-31T05:40:37.097Z,9.5
2018-12-31T05:41:37.155Z,9.5
2018-12-31T05:42:37.026Z,1.8
2018-12-31T05:43:37.122Z,3.9
2018-12-31T05:44:37.072Z,9.5
2018-12-31T05:45:37.059Z,6.6
2018-12-31T05:46:37.071Z,6.6
2018-12-31T05:47:37.126Z,0
2018-12-31T05:48:37.048Z,1.8
2018-12-31T05:49:37.106Z,3.9
2018-12-31T05:50:37.117Z,3.9
2018-12-31T05:51:37.055Z,1.8
2018-12-31T05:52:37.118Z,15.4
2018-12-31T05:53:37.012Z,6.6
2018-12-31T05:54:36.992Z,3.9
2018-12-31T05:55:37.111Z,0
2018-12-31T05:56:37.109Z,3.9
2018-12-31T05:57:37.096Z,6.6
2018-12-31T05:58:37.090Z,1.8
2018-12-31T05:59:37.041Z,0
2018-12-31T06:00:37.152Z,1.8
2018-12-31T06:01:37.059Z,3.9
2018-12-31T06:02:37.032Z,6.6
2018-12-31T06:03:37.198Z,3.9
2018-12-31T06:04:37.035Z,6.6
2018-12-31T06:05:37.140Z,6.6
2018-12-31T06:06:37.063Z,6.6
2018-12-31T06:07:37.082Z,0
2018-12-31T06:08:37.066Z,9.5
2018-12-31T06:09:37.043Z,6.6
2018-12-31T06:10:37.088Z,1.8
2018-12-31T06:11:37.064Z,3.9
2018-12-31T06:12:37.034Z,0
2018-12-31T06:13:37.033Z,0
2018-12-31T06:14:37.089Z,3.9
2018-12-31T06:15:37.106Z,3.9
2018-12-31T06:16:37.059Z,6.6
2018-12-31T06:17:37.035Z,1.8
2018-12-31T06:18:37.148Z,9.5
2018-12-31T06:19:37.050Z,1.8
2018-12-31T06:20:37.104Z,0
2018-12-31T06:21:37.007Z,0
2018-12-31T06:22:37.032Z,0
2018-12-31T06:23:37.069Z,1.8
2018-12-31T06:24:37.082Z,6.6
2018-12-31T06:25:37.021Z,12.4
2018-12-31T06:26:37.085Z,9.5
2018-12-31T06:27:37.061Z,6.6
2018-12-31T06:28:37.050Z,0
2018-12-31T06:29:37.137Z,0
2018-12-31T06:30:37.032Z,0
2018-12-31T06:31:37.015Z,1.8
2018-12-31T06:32:37.049Z,0
2018-12-31T06:33:37.119Z,0
2018-12-31T06:34:37.064Z,12.4
2018-12-31T06:35:37.105Z,3.9
2018-12-31T06:36:37.086Z,3.9
2018-12-31T06:37:37.015Z,6.6
2018-12-31T06:38:37.082Z,3.9
2018-12-31T06:39:37.012Z,3.9
2018-12-31T06:40:37.078Z,0
2018-12-31T06:41:37.084Z,3.9
2018-12-31T06:42:36.991Z,3.9
2018-12-31T06:43:37.065Z,0
2018-12-31T06:44:37.023Z,3.9
2018-12-31T06:45:37.081Z,1.8
2018-12-31T06:46:37.041Z,1.8
2018-12-31T06:47:37.043Z,0
2018-12-31T06:48:37.013Z,1.8
2018-12-31T06:49:37.140Z,1.8
2018-12-31T06:50:37.102Z,1.8
2018-12-31T06:51:37.030Z,3.9
2018-12-31T06:52:37.036Z,3.9
2018-12-31T06:53:37.063Z,0
2018-12-31T06:54:37.038Z,0
2018-12-31T06:55:37.110Z,6.6
2018-12-31T06:56:37.039Z,0
2018-12-31T06:57:37.099Z,1.8
2018-12-31T06:58:37.032Z,1.8
2018-12-31T06:59:36.967Z,9.5
2018-12-31T07:00:37.139Z,3.9
2018-12-31T07:01:37.127Z,6.6
2018-12-31T07:02:37.015Z,3.9
2018-12-31T07:03:37.021Z,0
2018-12-31T07:04:37.043Z,1.8
2018-12-31T07:05:37.054Z,1.8
2018-12-31T07:06:37.032Z,1.8
2018-12-31T07:07:37.033Z,0
2018-12-31T07:08:37.065Z,9.5
2018-12-31T07:09:37.048Z,3.9
2018-12-31T07:10:37.062Z,3.9
2018-12-31T07:11:37.119Z,3.9
2018-12-31T07:12:37.090Z,3.9
2018-12-31T07:13:37.018Z,6.6
2018-12-31T07:14:37.096Z,3.9
2018-12-31T07:15:37.055Z,0
2018-12-31T07:16:37.041Z,6.6
2018-12-31T07:17:37.028Z,9.5
2018-12-31T07:18:37.024Z,1.8
2018-12-31T07:19:37.020Z,6.6
2018-12-31T07:20:37.073Z,1.8
2018-12-31T07:21:37.003Z,1.8
2018-12-31T07:22:37.018Z,3.9
2018-12-31T07:23:37.012Z,1.8
2018-12-31T07:24:37.033Z,1.8
2018-12-31T07:25:37.084Z,3.9
2018-12-31T07:26:36.971Z,0
2018-12-31T07:27:37.130Z,0
2018-12-31T07:28:37.007Z,0
2018-12-31T07:29:37.024Z,0
2018-12-31T07:30:37.030Z,1.8
2018-12-31T07:31:37.055Z,6.6
2018-12-31T07:32:37.079Z,0
2018-12-31T07:33:37.022Z,0
2018-12-31T07:34:37.059Z,3.9
2018-12-31T07:35:37.069Z,3.9
2018-12-31T07:36:37.022Z,6.6
2018-12-31T07:37:37.041Z,6.6
2018-12-31T07:38:37.037Z,3.9
2018-12-31T07:39:37.033Z,9.5
2018-12-31T07:40:37.088Z,3.9
2018-12-31T07:41:36.984Z,0
2018-12-31T07:42:36.955Z,3.9
2018-12-31T07:43:36.970Z,6.6
2018-12-31T07:44:37.032Z,3.9
2018-12-31T07:45:37.089Z,9.5
2018-12-31T07:46:37.031Z,6.6
2018-12-31T07:47:37.017Z,6.6
2018-12-31T07:48:36.996Z,3.9
2018-12-31T07:49:37.082Z,3.9
2018-12-31T07:50:37.012Z,1.8
2018-12-31T07:51:37.052Z,3.9
2018-12-31T07:52:37.087Z,12.4
2018-12-31T07:53:37.061Z,6.6
2018-12-31T07:54:37.048Z,6.6
2018-12-31T07:55:37.037Z,3.9
2018-12-31T07:56:37.102Z,9.5
2018-12-31T07:57:36.931Z,9.5
2018-12-31T07:58:37.012Z,9.5
2018-12-31T07:59:36.992Z,3.9
2018-12-31T08:00:37.040Z,3.9
2018-12-31T08:01:37.070Z,3.9
2018-12-31T08:02:37.008Z,6.6
2018-12-31T08:03:36.966Z,3.9
2018-12-31T08:04:36.984Z,3.9
2018-12-31T08:05:37.006Z,12.4
2018-12-31T08:06:37.061Z,3.9
2018-12-31T08:07:37.008Z,6.6
2018-12-31T08:08:37.000Z,1.8
2018-12-31T08:09:37.050Z,6.6
2018-12-31T08:10:36.956Z,0
2018-12-31T08:11:37.092Z,9.5
2018-12-31T08:12:36.977Z,15.4
2018-12-31T08:13:37.032Z,0
2018-12-31T08:14:37.069Z,3.9
2018-12-31T08:15:37.052Z,3.9
2018-12-31T08:16:37.008Z,0
2018-12-31T08:17:36.969Z,0
2018-12-31T08:18:36.999Z,0
2018-12-31T08:19:37.080Z,3.9
2018-12-31T08:20:36.968Z,1.8
2018-12-31T08:21:36.975Z,1.8
2018-12-31T08:22:36.994Z,1.8
2018-12-31T08:23:36.986Z,0
2018-12-31T08:24:37.112Z,6.6
2018-12-31T08:25:36.999Z,6.6
2018-12-31T08:26:37.038Z,1.8
2018-12-31T08:27:36.974Z,0
2018-12-31T08:28:37.008Z,3.9
2018-12-31T08:29:37.009Z,0
2018-12-31T08:30:36.991Z,1.8
2018-12-31T08:31:37.033Z,3.9
2018-12-31T08:32:36.992Z,3.9
2018-12-31T08:33:36.997Z,1.8
2018-12-31T08:34:37.030Z,6.6
2018-12-31T08:35:37.819Z,1.8
2018-12-31T08:36:37.194Z,1.8
2018-12-31T08:37:37.649Z,6.6
2018-12-31T08:38:37.414Z,3.9
2018-12-31T08:39:36.977Z,3.9
2018-12-31T08:40:36.964Z,3.9
2018-12-31T08:41:37.174Z,3.9
2018-12-31T08:42:37.267Z,0
2018-12-31T08:43:36.983Z,1.8
2018-12-31T08:44:40.831Z,6.6
2018-12-31T08:45:36.945Z,1.8
2018-12-31T08:46:37.065Z,1.8
2018-12-31T08:47:41.113Z,3.9
2018-12-31T08:48:37.861Z,9.5
2018-12-31T08:49:37.106Z,3.9
2018-12-31T08:50:37.443Z,3.9
2018-12-31T08:51:37.624Z,3.9
2018-12-31T08:52:37.588Z,1.8
2018-12-31T08:53:36.965Z,12.4
2018-12-31T08:54:39.591Z,3.9
2018-12-31T08:55:36.990Z,1.8
2018-12-31T08:56:37.908Z,3.9
2018-12-31T08:57:38.849Z,3.9
2018-12-31T08:58:41.018Z,1.8
2018-12-31T08:59:37.004Z,6.6
2018-12-31T09:00:37.003Z,1.8
2018-12-31T09:01:37.086Z,0
2018-12-31T09:02:36.987Z,6.6
2018-12-31T09:03:37.084Z,3.9
2018-12-31T09:04:36.941Z,3.9
2018-12-31T09:05:37.007Z,3.9
2018-12-31T09:06:36.967Z,1.8
2018-12-31T09:07:36.983Z,9.5
2018-12-31T09:08:37.307Z,9.5
2018-12-31T09:09:36.983Z,6.6
2018-12-31T09:10:37.023Z,3.9
2018-12-31T09:11:36.992Z,1.8
2018-12-31T09:12:37.042Z,9.5
2018-12-31T09:13:36.933Z,0
2018-12-31T09:14:37.047Z,1.8
2018-12-31T09:15:36.960Z,9.5
2018-12-31T09:16:36.968Z,3.9
2018-12-31T09:17:36.966Z,3.9
2018-12-31T09:18:37.005Z,3.9
2018-12-31T09:19:37.071Z,3.9
2018-12-31T09:20:36.936Z,6.6
2018-12-31T09:21:36.950Z,1.8
2018-12-31T09:22:39.079Z,1.8
2018-12-31T09:23:37.080Z,3.9
2018-12-31T09:24:44.466Z,9.5
2018-12-31T09:25:36.975Z,0
2018-12-31T09:26:36.936Z,9.5
2018-12-31T09:27:36.964Z,3.9
2018-12-31T09:28:37.112Z,3.9
2018-12-31T09:29:37.006Z,3.9
2018-12-31T09:30:36.964Z,0
2018-12-31T09:31:36.907Z,6.6
2018-12-31T09:32:36.954Z,6.6
2018-12-31T09:33:37.046Z,3.9
2018-12-31T09:34:36.950Z,3.9
2018-12-31T09:35:36.963Z,3.9
2018-12-31T09:36:37.814Z,1.8
2018-12-31T09:37:46.834Z,0
2018-12-31T09:38:36.960Z,3.9
2018-12-31T09:39:37.025Z,0
2018-12-31T09:40:37.093Z,6.6
2018-12-31T09:41:37.040Z,0
2018-12-31T09:42:36.919Z,0
2018-12-31T09:43:36.986Z,0
2018-12-31T09:44:36.977Z,0
2018-12-31T09:45:37.054Z,3.9
2018-12-31T09:46:36.964Z,1.8
2018-12-31T09:47:36.965Z,0
2018-12-31T09:48:37.582Z,1.8
2018-12-31T09:49:37.058Z,0
2018-12-31T09:50:36.968Z,1.8
2018-12-31T09:51:36.989Z,6.6
2018-12-31T09:52:36.983Z,0
2018-12-31T09:53:37.029Z,3.9
2018-12-31T09:54:36.984Z,0
2018-12-31T09:55:36.977Z,0
2018-12-31T09:56:36.999Z,6.6
2018-12-31T09:57:37.038Z,3.9
2018-12-31T09:58:38.735Z,0
2018-12-31T09:59:36.933Z,9.5
2018-12-31T10:00:37.014Z,0
2018-12-31T10:01:37.026Z,1.8
2018-12-31T10:02:37.219Z,0
2018-12-31T10:03:37.038Z,1.8
2018-12-31T10:04:36.988Z,3.9
2018-12-31T10:05:37.059Z,0
2018-12-31T10:06:36.964Z,0
2018-12-31T10:07:41.134Z,1.8
2018-12-31T10:08:36.984Z,0
2018-12-31T10:09:39.231Z,1.8
2018-12-31T10:10:38.934Z,1.8
2018-12-31T10:11:37.021Z,0
2018-12-31T10:12:37.048Z,6.6
2018-12-31T10:13:36.912Z,3.9
2018-12-31T10:14:36.945Z,0
2018-12-31T10:15:36.949Z,3.9
2018-12-31T10:16:36.910Z,1.8
2018-12-31T10:17:38.085Z,0
2018-12-31T10:18:36.937Z,0
2018-12-31T10:19:36.950Z,3.9
2018-12-31T10:20:36.942Z,0
2018-12-31T10:21:43.385Z,1.8
2018-12-31T10:22:37.001Z,9.5
2018-12-31T10:23:37.004Z,0
2018-12-31T10:24:37.084Z,1.8
2018-12-31T10:25:36.978Z,1.8
2018-12-31T10:26:36.935Z,9.5
2018-12-31T10:27:36.963Z,3.9
2018-12-31T10:28:37.022Z,3.9
2018-12-31T10:29:38.715Z,9.5
2018-12-31T10:30:36.935Z,3.9
2018-12-31T10:31:37.192Z,6.6
2018-12-31T10:32:36.929Z,6.6
2018-12-31T10:33:36.975Z,3.9
2018-12-31T10:34:36.967Z,6.6
2018-12-31T10:35:36.941Z,0
2018-12-31T10:36:37.785Z,3.9
2018-12-31T10:37:36.919Z,0
2018-12-31T10:38:36.994Z,0
2018-12-31T10:39:36.939Z,0
2018-12-31T10:40:37.003Z,6.6
2018-12-31T10:41:36.975Z,3.9
2018-12-31T10:42:36.909Z,0
2018-12-31T10:43:36.949Z,9.5
2018-12-31T10:44:37.026Z,6.6
2018-12-31T10:45:36.950Z,6.6
2018-12-31T10:46:36.966Z,0
2018-12-31T10:47:37.040Z,6.6
2018-12-31T10:48:36.909Z,0
2018-12-31T10:49:36.976Z,3.9
2018-12-31T10:50:37.065Z,3.9
2018-12-31T10:51:36.950Z,6.6
2018-12-31T10:52:36.947Z,6.6
2018-12-31T10:53:36.956Z,6.6
2018-12-31T10:54:36.960Z,3.9
2018-12-31T10:55:37.020Z,6.6
2018-12-31T10:56:36.927Z,0
2018-12-31T10:57:36.975Z,9.5
2018-12-31T10:58:36.894Z,3.9
2018-12-31T10:59:36.992Z,0
2018-12-31T11:00:36.985Z,3.9
2018-12-31T11:01:37.053Z,3.9
2018-12-31T11:02:36.939Z,12.4
2018-12-31T11:03:36.956Z,12.4
2018-12-31T11:04:36.952Z,0
2018-12-31T11:05:36.958Z,3.9
2018-12-31T11:06:36.937Z,12.4
2018-12-31T11:07:36.957Z,12.4
2018-12-31T11:08:37.016Z,3.9
2018-12-31T11:09:36.933Z,6.6
2018-12-31T11:10:36.928Z,9.5
2018-12-31T11:11:36.913Z,6.6
2018-12-31T11:12:36.947Z,12.4
2018-12-31T11:13:37.016Z,6.6
2018-12-31T11:14:36.989Z,6.6
2018-12-31T11:15:36.935Z,12.4
2018-12-31T11:16:36.918Z,1.8
2018-12-31T11:17:36.958Z,3.9
2018-12-31T11:18:37.154Z,0
2018-12-31T11:19:36.936Z,24.3
2018-12-31T11:20:36.918Z,6.6
2018-12-31T11:21:36.898Z,6.6
2018-12-31T11:22:36.931Z,0
2018-12-31T11:23:37.004Z,1.8
2018-12-31T11:24:36.956Z,6.6
2018-12-31T11:25:38.917Z,6.6
2018-12-31T11:26:37.005Z,12.4
2018-12-31T11:27:36.941Z,9.5
2018-12-31T11:28:36.979Z,12.4
2018-12-31T11:29:36.940Z,6.6
2018-12-31T11:30:37.155Z,15.4
2018-12-31T11:31:36.878Z,18.3
2018-12-31T11:32:36.919Z,15.4
2018-12-31T11:33:36.952Z,18.3
2018-12-31T11:34:36.922Z,21.3
2018-12-31T11:35:36.997Z,18.3
2018-12-31T11:36:36.979Z,15.4
2018-12-31T11:37:37.353Z,27.3
2018-12-31T11:38:36.957Z,24.3
2018-12-31T11:39:36.906Z,27.3
2018-12-31T11:40:36.968Z,24.3
2018-12-31T11:41:36.961Z,30.3
2018-12-31T11:42:36.920Z,30.3
2018-12-31T11:43:37.051Z,30.3
2018-12-31T11:44:36.927Z,27.3
2018-12-31T11:45:36.949Z,24.3
2018-12-31T11:46:36.968Z,24.3
2018-12-31T11:47:36.904Z,27.3
2018-12-31T11:48:36.976Z,24.3
2018-12-31T11:49:36.922Z,30.3
2018-12-31T11:50:36.924Z,33.3
2018-12-31T11:51:36.940Z,27.3
2018-12-31T11:52:36.926Z,24.3
2018-12-31T11:53:36.944Z,24.3
2018-12-31T11:54:36.950Z,33.3
2018-12-31T11:55:36.909Z,24.3
2018-12-31T11:56:36.921Z,24.3
2018-12-31T11:57:36.899Z,18.3
2018-12-31T11:58:36.954Z,15.4
2018-12-31T11:59:36.945Z,21.3
2018-12-31T12:00:36.938Z,21.3
2018-12-31T12:01:37.003Z,24.3
2018-12-31T12:02:36.876Z,27.3
2018-12-31T12:03:36.921Z,30.3
2018-12-31T12:04:36.870Z,24.3
2018-12-31T12:05:36.920Z,21.3
2018-12-31T12:06:36.968Z,21.3
2018-12-31T12:07:36.982Z,33.3
2018-12-31T12:08:36.929Z,18.3
2018-12-31T12:09:46.834Z,24.3
2018-12-31T12:10:36.961Z,3.9
2018-12-31T12:11:36.944Z,12.4
2018-12-31T12:12:36.940Z,27.3
2018-12-31T12:13:36.965Z,18.3
2018-12-31T12:14:36.937Z,9.5
2018-12-31T12:15:36.920Z,24.3
2018-12-31T12:16:36.906Z,24.3
2018-12-31T12:17:36.941Z,36.3
2018-12-31T12:18:36.990Z,27.3
2018-12-31T12:19:36.926Z,27.3
2018-12-31T12:20:36.898Z,36.3
2018-12-31T12:21:36.926Z,24.3
2018-12-31T12:22:36.957Z,24.3
2018-12-31T12:23:36.947Z,24.3
2018-12-31T12:24:37.488Z,27.3
2018-12-31T12:25:36.992Z,24.3
2018-12-31T12:26:36.927Z,33.3
2018-12-31T12:27:36.845Z,27.3
2018-12-31T12:28:36.991Z,24.3
2018-12-31T12:29:36.916Z,27.3
2018-12-31T12:30:36.962Z,18.3
2018-12-31T12:31:36.886Z,30.3
2018-12-31T12:32:36.979Z,15.4
2018-12-31T12:33:38.446Z,21.3
2018-12-31T12:34:36.924Z,21.3
2018-12-31T12:35:36.893Z,30.3
2018-12-31T12:36:36.884Z,21.3
2018-12-31T12:37:36.907Z,15.4
2018-12-31T12:38:36.914Z,24.3
2018-12-31T12:39:36.963Z,27.3
2018-12-31T12:40:36.909Z,24.3
2018-12-31T12:41:36.914Z,18.3
2018-12-31T12:42:37.395Z,33.3
2018-12-31T12:43:36.930Z,27.3
2018-12-31T12:44:36.969Z,30.3
2018-12-31T12:45:36.919Z,30.3
2018-12-31T12:46:36.912Z,21.3
2018-12-31T12:47:36.880Z,27.3
2018-12-31T12:48:36.871Z,36.3
2018-12-31T12:49:37.023Z,27.3
2018-12-31T12:50:36.961Z,36.3
2018-12-31T12:51:37.416Z,18.3
2018-12-31T12:52:36.981Z,24.3
2018-12-31T12:53:36.880Z,18.3
2018-12-31T12:54:36.934Z,27.3
2018-12-31T12:55:36.949Z,24.3
2018-12-31T12:56:36.973Z,30.3
2018-12-31T12:57:36.921Z,27.3
2018-12-31T12:58:38.763Z,27.3
2018-12-31T12:59:36.910Z,27.3
2018-12-31T13:00:37.041Z,24.3
2018-12-31T13:01:36.908Z,24.3
2018-12-31T13:02:36.945Z,33.3
2018-12-31T13:03:36.940Z,33.3
2018-12-31T13:04:36.890Z,27.3
2018-12-31T13:05:37.134Z,24.3
2018-12-31T13:06:36.985Z,21.3
2018-12-31T13:07:36.968Z,30.3
2018-12-31T13:08:37.208Z,33.3
2018-12-31T13:09:36.867Z,27.3
2018-12-31T13:10:36.886Z,21.3
2018-12-31T13:11:39.681Z,24.3
2018-12-31T13:12:36.915Z,30.3
2018-12-31T13:13:37.008Z,27.3
2018-12-31T13:14:37.350Z,21.3
2018-12-31T13:15:36.960Z,21.3
2018-12-31T13:16:36.864Z,18.3
2018-12-31T13:17:37.758Z,33.3
2018-12-31T13:18:36.915Z,24.3
2018-12-31T13:19:36.910Z,15.4
2018-12-31T13:20:39.745Z,27.3
2018-12-31T13:21:37.227Z,21.3
2018-12-31T13:22:37.383Z,21.3
2018-12-31T13:23:42.397Z,18.3
2018-12-31T13:24:41.814Z,12.4
2018-12-31T13:25:43.745Z,21.3
2018-12-31T13:26:47.679Z,27.3
2018-12-31T13:27:41.633Z,24.3
2018-12-31T13:28:39.408Z,21.3
2018-12-31T13:29:39.830Z,27.3
2018-12-31T13:30:36.961Z,18.3
2018-12-31T13:31:36.851Z,33.3
2018-12-31T13:32:37.146Z,30.3
2018-12-31T13:33:36.975Z,33.3
2018-12-31T13:34:36.889Z,30.3
2018-12-31T13:35:37.616Z,27.3
2018-12-31T13:36:36.873Z,30.3
2018-12-31T13:37:36.858Z,36.3
2018-12-31T13:38:37.018Z,21.3
2018-12-31T13:39:36.939Z,27.3
2018-12-31T13:40:36.909Z,21.3
2018-12-31T13:41:36.907Z,30.3
2018-12-31T13:42:36.932Z,24.3
2018-12-31T13:43:36.918Z,24.3
2018-12-31T13:44:36.919Z,15.4
2018-12-31T13:45:36.975Z,24.3
2018-12-31T13:46:36.931Z,33.3